KWMC/WMC METAR and TAF weather

Enter ICAO airport designator
Station Type Date Time Source
KWMC METAR 2019/04/25 09:56 UTC NOAA

KWMC 250956Z AUTO 06015G21KT 10SM CLR 12/03 A3010 RMK AO2 SLP152 T01220033


Station Type Date Time Source
KWMC Decoded METAR 2019/04/25 09:56 UTC NOAA

WINNEMUCCA MUNICIPAL AIRPORT, NV, United States (KWMC) 40-54N 117-48W 1310M
Apr 25, 2019 - 05:56 AM EDT / 2019.04.25 0956 UTC
Wind: from the ENE (060 degrees) at 17 MPH (15 KT) gusting to 24 MPH (21 KT):0
Visibility: 10 mile(s):0
Sky conditions: clear
Temperature: 54.0 F (12.2 C)
Dew Point: 37.9 F (3.3 C)
Relative Humidity: 54%
Pressure (altimeter): 30.1 in. Hg (1019 hPa)
ob: KWMC 250956Z AUTO 06015G21KT 10SM CLR 12/03 A3010 RMK AO2 SLP152 T01220033
cycle: 10

Station Type Date Time Source
KWMC TAF 2019/04/25 06:24 UTC NOAA

TAF KWMC 250521Z 2506/2606 08006KT P6SM SCT250
FM252000 24010G18KT P6SM SCT080 SCT250
FM260200 23006KT P6SM SCT250

Example: see airport list